sensor_id;sensor_type;location;lat;lon;timestamp;temperature;humidity
9564;DHT22;4820;50.870;4.702;2023-03-07T00:00:51;5.70;99.90
9564;DHT22;4820;50.870;4.702;2023-03-07T00:03:17;5.60;99.90
9564;DHT22;4820;50.870;4.702;2023-03-07T00:05:45;5.60;99.90
9564;DHT22;4820;50.870;4.702;2023-03-07T00:08:11;5.60;99.90
9564;DHT22;4820;50.870;4.702;2023-03-07T00:10:39;5.60;99.90
9564;DHT22;4820;50.870;4.702;2023-03-07T00:13:05;5.60;99.90
9564;DHT22;4820;50.870;4.702;2023-03-07T00:15:31;5.60;99.90
9564;DHT22;4820;50.870;4.702;2023-03-07T00:17:57;5.60;99.90
9564;DHT22;4820;50.870;4.702;2023-03-07T00:20:22;5.60;99.90
9564;DHT22;4820;50.870;4.702;2023-03-07T00:22:48;5.60;99.90
9564;DHT22;4820;50.870;4.702;2023-03-07T00:25:14;5.60;99.90
9564;DHT22;4820;50.870;4.702;2023-03-07T00:27:42;5.60;99.90
9564;DHT22;4820;50.870;4.702;2023-03-07T00:30:08;5.60;99.90
9564;DHT22;4820;50.870;4.702;2023-03-07T00:32:34;5.60;99.90
9564;DHT22;4820;50.870;4.702;2023-03-07T00:35:00;5.60;99.90
9564;DHT22;4820;50.870;4.702;2023-03-07T00:37:26;5.60;99.90
9564;DHT22;4820;50.870;4.702;2023-03-07T00:39:51;5.60;99.90
9564;DHT22;4820;50.870;4.702;2023-03-07T00:42:17;5.60;99.90
9564;DHT22;4820;50.870;4.702;2023-03-07T00:44:44;5.70;99.90
9564;DHT22;4820;50.870;4.702;2023-03-07T00:47:09;5.60;99.90
9564;DHT22;4820;50.870;4.702;2023-03-07T00:49:35;5.50;99.90
9564;DHT22;4820;50.870;4.702;2023-03-07T00:52:01;5.60;99.90
9564;DHT22;4820;50.870;4.702;2023-03-07T00:54:26;5.60;99.90
9564;DHT22;4820;50.870;4.702;2023-03-07T00:56:52;5.60;99.90
9564;DHT22;4820;50.870;4.702;2023-03-07T00:59:19;5.60;99.90
9564;DHT22;4820;50.870;4.702;2023-03-07T01:01:44;5.60;99.90
9564;DHT22;4820;50.870;4.702;2023-03-07T01:04:10;5.60;99.90
9564;DHT22;4820;50.870;4.702;2023-03-07T01:06:36;5.60;99.90
9564;DHT22;4820;50.870;4.702;2023-03-07T01:09:04;5.60;99.90
9564;DHT22;4820;50.870;4.702;2023-03-07T01:11:30;5.60;99.90
9564;DHT22;4820;50.870;4.702;2023-03-07T01:13:57;5.60;99.90
9564;DHT22;4820;50.870;4.702;2023-03-07T01:16:35;5.60;99.90
9564;DHT22;4820;50.870;4.702;2023-03-07T01:19:05;5.60;99.90
9564;DHT22;4820;50.870;4.702;2023-03-07T01:21:35;5.60;99.90
9564;DHT22;4820;50.870;4.702;2023-03-07T01:24:03;5.60;99.90
9564;DHT22;4820;50.870;4.702;2023-03-07T01:26:30;5.60;99.90
9564;DHT22;4820;50.870;4.702;2023-03-07T01:28:58;5.60;99.90
9564;DHT22;4820;50.870;4.702;2023-03-07T01:31:25;5.70;99.90
9564;DHT22;4820;50.870;4.702;2023-03-07T01:33:52;5.60;99.90
9564;DHT22;4820;50.870;4.702;2023-03-07T01:36:23;5.60;99.90
9564;DHT22;4820;50.870;4.702;2023-03-07T01:38:57;5.60;99.90
9564;DHT22;4820;50.870;4.702;2023-03-07T01:41:23;5.60;99.90
9564;DHT22;4820;50.870;4.702;2023-03-07T01:43:49;5.60;99.90
9564;DHT22;4820;50.870;4.702;2023-03-07T01:49:31;5.50;99.90
9564;DHT22;4820;50.870;4.702;2023-03-07T01:51:34;5.50;99.90
9564;DHT22;4820;50.870;4.702;2023-03-07T01:54:01;5.50;99.90
9564;DHT22;4820;50.870;4.702;2023-03-07T01:56:29;5.60;99.90
9564;DHT22;4820;50.870;4.702;2023-03-07T01:58:56;5.60;99.90
9564;DHT22;4820;50.870;4.702;2023-03-07T02:01:22;5.50;99.90
9564;DHT22;4820;50.870;4.702;2023-03-07T02:03:54;5.50;99.90
9564;DHT22;4820;50.870;4.702;2023-03-07T02:06:21;5.50;99.90
9564;DHT22;4820;50.870;4.702;2023-03-07T02:08:48;5.50;99.90
9564;DHT22;4820;50.870;4.702;2023-03-07T02:11:15;5.50;99.90
9564;DHT22;4820;50.870;4.702;2023-03-07T02:13:41;5.50;99.90
9564;DHT22;4820;50.870;4.702;2023-03-07T02:16:06;5.50;99.90
9564;DHT22;4820;50.870;4.702;2023-03-07T02:18:35;5.50;99.90
9564;DHT22;4820;50.870;4.702;2023-03-07T02:21:11;5.50;99.90
9564;DHT22;4820;50.870;4.702;2023-03-07T02:24:00;5.40;99.90
9564;DHT22;4820;50.870;4.702;2023-03-07T02:28:58;5.40;99.90
9564;DHT22;4820;50.870;4.702;2023-03-07T02:31:25;5.40;99.90
9564;DHT22;4820;50.870;4.702;2023-03-07T02:33:50;5.40;99.90
9564;DHT22;4820;50.870;4.702;2023-03-07T02:36:21;5.40;99.90
9564;DHT22;4820;50.870;4.702;2023-03-07T02:38:48;5.40;99.90
9564;DHT22;4820;50.870;4.702;2023-03-07T02:41:20;5.40;99.90
9564;DHT22;4820;50.870;4.702;2023-03-07T02:43:47;5.40;99.90
9564;DHT22;4820;50.870;4.702;2023-03-07T02:46:14;5.30;99.90
9564;DHT22;4820;50.870;4.702;2023-03-07T02:48:39;5.40;99.90
9564;DHT22;4820;50.870;4.702;2023-03-07T02:51:06;5.30;99.90
9564;DHT22;4820;50.870;4.702;2023-03-07T02:53:32;5.30;99.90
9564;DHT22;4820;50.870;4.702;2023-03-07T02:55:57;5.30;99.90
9564;DHT22;4820;50.870;4.702;2023-03-07T02:58:24;5.30;99.90
9564;DHT22;4820;50.870;4.702;2023-03-07T03:00:51;5.30;99.90
9564;DHT22;4820;50.870;4.702;2023-03-07T03:03:17;5.30;99.90
9564;DHT22;4820;50.870;4.702;2023-03-07T03:05:43;5.30;99.90
9564;DHT22;4820;50.870;4.702;2023-03-07T03:08:09;5.30;99.90
9564;DHT22;4820;50.870;4.702;2023-03-07T03:10:36;5.30;99.90
9564;DHT22;4820;50.870;4.702;2023-03-07T03:13:02;5.30;99.90
9564;DHT22;4820;50.870;4.702;2023-03-07T03:15:28;5.30;99.90
9564;DHT22;4820;50.870;4.702;2023-03-07T03:17:54;5.30;99.90
9564;DHT22;4820;50.870;4.702;2023-03-07T03:20:19;5.30;99.90
9564;DHT22;4820;50.870;4.702;2023-03-07T03:22:45;5.30;99.90
9564;DHT22;4820;50.870;4.702;2023-03-07T03:25:12;5.30;99.90
9564;DHT22;4820;50.870;4.702;2023-03-07T03:27:40;5.30;99.90
9564;DHT22;4820;50.870;4.702;2023-03-07T03:30:08;5.30;99.90
9564;DHT22;4820;50.870;4.702;2023-03-07T03:32:36;5.30;99.90
9564;DHT22;4820;50.870;4.702;2023-03-07T03:35:02;5.30;99.90
9564;DHT22;4820;50.870;4.702;2023-03-07T03:37:30;5.30;99.90
9564;DHT22;4820;50.870;4.702;2023-03-07T03:39:56;5.40;99.90
9564;DHT22;4820;50.870;4.702;2023-03-07T03:42:21;5.40;99.90
9564;DHT22;4820;50.870;4.702;2023-03-07T03:44:47;5.40;99.90
9564;DHT22;4820;50.870;4.702;2023-03-07T03:47:14;5.40;99.90
9564;DHT22;4820;50.870;4.702;2023-03-07T03:49:40;5.40;99.90
9564;DHT22;4820;50.870;4.702;2023-03-07T03:52:05;5.40;99.90
9564;DHT22;4820;50.870;4.702;2023-03-07T03:54:31;5.30;99.90
9564;DHT22;4820;50.870;4.702;2023-03-07T03:56:57;5.40;99.90
9564;DHT22;4820;50.870;4.702;2023-03-07T03:59:22;5.40;99.90
9564;DHT22;4820;50.870;4.702;2023-03-07T04:01:48;5.40;99.90
9564;DHT22;4820;50.870;4.702;2023-03-07T04:04:14;5.40;99.90
9564;DHT22;4820;50.870;4.702;2023-03-07T04:06:40;5.40;99.90
9564;DHT22;4820;50.870;4.702;2023-03-07T04:09:07;5.40;99.90
9564;DHT22;4820;50.870;4.702;2023-03-07T04:11:34;5.40;99.90
9564;DHT22;4820;50.870;4.702;2023-03-07T04:14:00;5.40;99.90
9564;DHT22;4820;50.870;4.702;2023-03-07T04:16:26;5.40;99.90
9564;DHT22;4820;50.870;4.702;2023-03-07T04:18:52;5.50;99.90
9564;DHT22;4820;50.870;4.702;2023-03-07T04:21:18;5.50;99.90
9564;DHT22;4820;50.870;4.702;2023-03-07T04:23:44;5.40;99.90
9564;DHT22;4820;50.870;4.702;2023-03-07T04:26:11;5.40;99.90
9564;DHT22;4820;50.870;4.702;2023-03-07T04:28:41;5.40;99.90
9564;DHT22;4820;50.870;4.702;2023-03-07T04:31:15;5.40;99.90
9564;DHT22;4820;50.870;4.702;2023-03-07T04:33:41;5.40;99.90
9564;DHT22;4820;50.870;4.702;2023-03-07T04:36:08;5.40;99.90
9564;DHT22;4820;50.870;4.702;2023-03-07T04:38:34;5.40;99.90
9564;DHT22;4820;50.870;4.702;2023-03-07T04:41:02;5.40;99.90
9564;DHT22;4820;50.870;4.702;2023-03-07T04:43:28;5.40;99.90
9564;DHT22;4820;50.870;4.702;2023-03-07T04:45:54;5.40;99.90
9564;DHT22;4820;50.870;4.702;2023-03-07T04:48:20;5.40;99.90
9564;DHT22;4820;50.870;4.702;2023-03-07T04:50:50;5.40;99.90
9564;DHT22;4820;50.870;4.702;2023-03-07T04:53:17;5.40;99.90
9564;DHT22;4820;50.870;4.702;2023-03-07T04:55:43;5.40;99.90
9564;DHT22;4820;50.870;4.702;2023-03-07T04:58:09;5.40;99.90
9564;DHT22;4820;50.870;4.702;2023-03-07T05:00:44;5.40;99.90
9564;DHT22;4820;50.870;4.702;2023-03-07T05:03:13;5.30;99.90
9564;DHT22;4820;50.870;4.702;2023-03-07T05:05:39;5.30;99.90
9564;DHT22;4820;50.870;4.702;2023-03-07T05:08:05;5.30;99.90
9564;DHT22;4820;50.870;4.702;2023-03-07T05:10:32;5.30;99.90
9564;DHT22;4820;50.870;4.702;2023-03-07T05:12:58;5.30;99.90
9564;DHT22;4820;50.870;4.702;2023-03-07T05:15:24;5.30;99.90
9564;DHT22;4820;50.870;4.702;2023-03-07T05:17:49;5.30;99.90
9564;DHT22;4820;50.870;4.702;2023-03-07T05:20:15;5.30;99.90
9564;DHT22;4820;50.870;4.702;2023-03-07T05:22:41;5.30;99.90
9564;DHT22;4820;50.870;4.702;2023-03-07T05:25:07;5.30;99.90
9564;DHT22;4820;50.870;4.702;2023-03-07T05:27:32;5.30;99.90
9564;DHT22;4820;50.870;4.702;2023-03-07T05:29:58;5.30;99.90
9564;DHT22;4820;50.870;4.702;2023-03-07T05:32:24;5.30;99.90
9564;DHT22;4820;50.870;4.702;2023-03-07T05:34:50;5.30;99.90
9564;DHT22;4820;50.870;4.702;2023-03-07T05:37:16;5.40;99.90
9564;DHT22;4820;50.870;4.702;2023-03-07T05:39:42;5.40;99.90
9564;DHT22;4820;50.870;4.702;2023-03-07T05:42:08;5.30;99.90
9564;DHT22;4820;50.870;4.702;2023-03-07T05:44:34;5.30;99.90
9564;DHT22;4820;50.870;4.702;2023-03-07T05:46:59;5.30;99.90
9564;DHT22;4820;50.870;4.702;2023-03-07T05:49:25;5.30;99.90
9564;DHT22;4820;50.870;4.702;2023-03-07T05:51:51;5.30;99.90
9564;DHT22;4820;50.870;4.702;2023-03-07T05:54:16;5.30;99.90
9564;DHT22;4820;50.870;4.702;2023-03-07T05:56:42;5.20;99.90
9564;DHT22;4820;50.870;4.702;2023-03-07T05:59:08;5.20;99.90
9564;DHT22;4820;50.870;4.702;2023-03-07T06:01:36;5.20;99.90
9564;DHT22;4820;50.870;4.702;2023-03-07T06:04:02;5.20;99.90
9564;DHT22;4820;50.870;4.702;2023-03-07T06:06:27;5.20;99.90
9564;DHT22;4820;50.870;4.702;2023-03-07T06:08:53;5.20;99.90
9564;DHT22;4820;50.870;4.702;2023-03-07T06:11:19;5.20;99.90
9564;DHT22;4820;50.870;4.702;2023-03-07T06:13:45;5.20;99.90
9564;DHT22;4820;50.870;4.702;2023-03-07T06:16:13;5.20;99.90
9564;DHT22;4820;50.870;4.702;2023-03-07T06:18:39;5.20;99.90
9564;DHT22;4820;50.870;4.702;2023-03-07T06:21:06;5.20;99.90
9564;DHT22;4820;50.870;4.702;2023-03-07T06:23:34;5.20;99.90
9564;DHT22;4820;50.870;4.702;2023-03-07T06:26:01;5.20;99.90
9564;DHT22;4820;50.870;4.702;2023-03-07T06:28:27;5.20;99.90
9564;DHT22;4820;50.870;4.702;2023-03-07T06:30:53;5.20;99.90
9564;DHT22;4820;50.870;4.702;2023-03-07T06:33:19;5.20;99.90
9564;DHT22;4820;50.870;4.702;2023-03-07T06:35:45;5.20;99.90
9564;DHT22;4820;50.870;4.702;2023-03-07T06:38:13;5.20;99.90
9564;DHT22;4820;50.870;4.702;2023-03-07T06:40:39;5.20;99.90
9564;DHT22;4820;50.870;4.702;2023-03-07T06:43:05;5.20;99.90
9564;DHT22;4820;50.870;4.702;2023-03-07T06:45:31;5.20;99.90
9564;DHT22;4820;50.870;4.702;2023-03-07T06:47:56;5.20;99.90
9564;DHT22;4820;50.870;4.702;2023-03-07T06:50:22;5.30;99.90
9564;DHT22;4820;50.870;4.702;2023-03-07T06:52:48;5.30;99.90
9564;DHT22;4820;50.870;4.702;2023-03-07T06:55:17;5.20;99.90
9564;DHT22;4820;50.870;4.702;2023-03-07T06:57:43;5.30;99.90
9564;DHT22;4820;50.870;4.702;2023-03-07T07:00:09;5.30;99.90
9564;DHT22;4820;50.870;4.702;2023-03-07T07:02:35;5.30;99.90
9564;DHT22;4820;50.870;4.702;2023-03-07T07:05:01;5.30;99.90
9564;DHT22;4820;50.870;4.702;2023-03-07T07:07:28;5.40;99.90
9564;DHT22;4820;50.870;4.702;2023-03-07T07:09:53;5.40;99.90
9564;DHT22;4820;50.870;4.702;2023-03-07T07:12:19;5.40;99.90
9564;DHT22;4820;50.870;4.702;2023-03-07T07:14:45;5.40;99.90
9564;DHT22;4820;50.870;4.702;2023-03-07T07:17:11;5.40;99.90
9564;DHT22;4820;50.870;4.702;2023-03-07T07:19:37;5.40;99.90
9564;DHT22;4820;50.870;4.702;2023-03-07T07:22:03;5.40;99.90
9564;DHT22;4820;50.870;4.702;2023-03-07T07:24:30;5.40;99.90
9564;DHT22;4820;50.870;4.702;2023-03-07T07:26:57;5.40;99.90
9564;DHT22;4820;50.870;4.702;2023-03-07T07:29:24;5.40;99.90
9564;DHT22;4820;50.870;4.702;2023-03-07T07:31:49;5.40;99.90
9564;DHT22;4820;50.870;4.702;2023-03-07T07:34:15;5.40;99.90
9564;DHT22;4820;50.870;4.702;2023-03-07T07:36:41;5.40;99.90
9564;DHT22;4820;50.870;4.702;2023-03-07T07:39:07;5.40;99.90
9564;DHT22;4820;50.870;4.702;2023-03-07T07:41:34;5.50;99.90
9564;DHT22;4820;50.870;4.702;2023-03-07T07:44:00;5.50;99.90
9564;DHT22;4820;50.870;4.702;2023-03-07T07:46:26;5.50;99.90
9564;DHT22;4820;50.870;4.702;2023-03-07T07:48:55;5.60;99.90
9564;DHT22;4820;50.870;4.702;2023-03-07T07:51:21;5.60;99.90
9564;DHT22;4820;50.870;4.702;2023-03-07T07:53:47;5.60;99.90
9564;DHT22;4820;50.870;4.702;2023-03-07T07:56:12;5.60;99.90
9564;DHT22;4820;50.870;4.702;2023-03-07T07:58:38;5.50;99.90
9564;DHT22;4820;50.870;4.702;2023-03-07T08:01:16;5.50;99.90
9564;DHT22;4820;50.870;4.702;2023-03-07T08:03:42;5.60;99.90
9564;DHT22;4820;50.870;4.702;2023-03-07T08:06:09;5.50;99.90
9564;DHT22;4820;50.870;4.702;2023-03-07T08:08:36;5.60;99.90
9564;DHT22;4820;50.870;4.702;2023-03-07T08:11:02;5.50;99.90
9564;DHT22;4820;50.870;4.702;2023-03-07T08:13:28;5.60;99.90
9564;DHT22;4820;50.870;4.702;2023-03-07T08:15:54;5.50;99.90
9564;DHT22;4820;50.870;4.702;2023-03-07T08:18:20;5.50;99.90
9564;DHT22;4820;50.870;4.702;2023-03-07T08:20:47;5.50;99.90
9564;DHT22;4820;50.870;4.702;2023-03-07T08:23:12;5.50;99.90
9564;DHT22;4820;50.870;4.702;2023-03-07T08:25:38;5.50;99.90
9564;DHT22;4820;50.870;4.702;2023-03-07T08:28:04;5.60;99.90
9564;DHT22;4820;50.870;4.702;2023-03-07T08:30:32;5.50;99.90
9564;DHT22;4820;50.870;4.702;2023-03-07T08:32:59;5.50;99.90
9564;DHT22;4820;50.870;4.702;2023-03-07T08:35:26;5.50;99.90
9564;DHT22;4820;50.870;4.702;2023-03-07T08:37:54;5.50;99.90
9564;DHT22;4820;50.870;4.702;2023-03-07T08:40:21;5.50;99.90
9564;DHT22;4820;50.870;4.702;2023-03-07T08:42:48;5.50;99.90
9564;DHT22;4820;50.870;4.702;2023-03-07T08:45:14;5.40;99.90
9564;DHT22;4820;50.870;4.702;2023-03-07T08:47:39;5.50;99.90
9564;DHT22;4820;50.870;4.702;2023-03-07T08:50:06;5.50;99.90
9564;DHT22;4820;50.870;4.702;2023-03-07T08:52:32;5.50;99.90
9564;DHT22;4820;50.870;4.702;2023-03-07T08:54:59;5.50;99.90
9564;DHT22;4820;50.870;4.702;2023-03-07T08:57:24;5.60;99.90
9564;DHT22;4820;50.870;4.702;2023-03-07T08:59:50;5.60;99.90
9564;DHT22;4820;50.870;4.702;2023-03-07T09:02:15;5.60;99.90
9564;DHT22;4820;50.870;4.702;2023-03-07T09:04:43;5.60;99.90
9564;DHT22;4820;50.870;4.702;2023-03-07T09:07:10;5.60;99.90
9564;DHT22;4820;50.870;4.702;2023-03-07T09:09:36;5.60;99.90
9564;DHT22;4820;50.870;4.702;2023-03-07T09:12:01;5.70;99.90
9564;DHT22;4820;50.870;4.702;2023-03-07T09:14:27;5.70;99.90
9564;DHT22;4820;50.870;4.702;2023-03-07T09:16:53;5.60;99.90
9564;DHT22;4820;50.870;4.702;2023-03-07T09:19:19;5.70;99.90
9564;DHT22;4820;50.870;4.702;2023-03-07T09:21:46;5.70;99.90
9564;DHT22;4820;50.870;4.702;2023-03-07T09:24:12;5.80;99.90
9564;DHT22;4820;50.870;4.702;2023-03-07T09:26:37;5.80;99.90
9564;DHT22;4820;50.870;4.702;2023-03-07T09:29:05;5.90;99.90
9564;DHT22;4820;50.870;4.702;2023-03-07T09:31:32;5.90;99.90
9564;DHT22;4820;50.870;4.702;2023-03-07T09:33:58;5.90;99.90
9564;DHT22;4820;50.870;4.702;2023-03-07T09:36:24;5.90;99.90
9564;DHT22;4820;50.870;4.702;2023-03-07T09:38:49;5.90;99.90
9564;DHT22;4820;50.870;4.702;2023-03-07T09:44:25;5.90;99.90
9564;DHT22;4820;50.870;4.702;2023-03-07T09:49:48;5.90;99.90
9564;DHT22;4820;50.870;4.702;2023-03-07T09:52:36;5.90;99.90
9564;DHT22;4820;50.870;4.702;2023-03-07T09:55:16;5.90;99.90
9564;DHT22;4820;50.870;4.702;2023-03-07T09:58:12;5.80;99.90
9564;DHT22;4820;50.870;4.702;2023-03-07T10:00:41;5.80;99.90
9564;DHT22;4820;50.870;4.702;2023-03-07T10:03:30;5.90;99.90
9564;DHT22;4820;50.870;4.702;2023-03-07T10:05:59;6.00;99.90
9564;DHT22;4820;50.870;4.702;2023-03-07T10:08:29;6.00;99.90
9564;DHT22;4820;50.870;4.702;2023-03-07T10:16:35;6.20;99.90
9564;DHT22;4820;50.870;4.702;2023-03-07T10:27:14;6.10;99.90
9564;DHT22;4820;50.870;4.702;2023-03-07T10:29:54;6.10;99.90
9564;DHT22;4820;50.870;4.702;2023-03-07T10:32:22;6.10;99.90
9564;DHT22;4820;50.870;4.702;2023-03-07T10:34:56;6.10;99.90
9564;DHT22;4820;50.870;4.702;2023-03-07T10:37:34;6.10;99.90
9564;DHT22;4820;50.870;4.702;2023-03-07T10:40:00;6.10;99.90
9564;DHT22;4820;50.870;4.702;2023-03-07T10:42:33;6.10;99.90
9564;DHT22;4820;50.870;4.702;2023-03-07T10:45:00;6.00;99.90
9564;DHT22;4820;50.870;4.702;2023-03-07T10:47:27;6.00;99.90
9564;DHT22;4820;50.870;4.702;2023-03-07T10:50:05;6.00;99.90
9564;DHT22;4820;50.870;4.702;2023-03-07T10:52:57;5.90;99.90
9564;DHT22;4820;50.870;4.702;2023-03-07T10:58:17;5.90;99.90
9564;DHT22;4820;50.870;4.702;2023-03-07T11:00:46;6.00;99.90
9564;DHT22;4820;50.870;4.702;2023-03-07T11:03:25;6.10;99.90
9564;DHT22;4820;50.870;4.702;2023-03-07T11:05:51;6.20;99.90
9564;DHT22;4820;50.870;4.702;2023-03-07T11:08:26;6.20;99.90
9564;DHT22;4820;50.870;4.702;2023-03-07T11:10:53;6.30;99.90
9564;DHT22;4820;50.870;4.702;2023-03-07T11:13:22;6.40;99.90
9564;DHT22;4820;50.870;4.702;2023-03-07T11:15:49;6.50;99.90
9564;DHT22;4820;50.870;4.702;2023-03-07T11:18:31;6.50;99.90
9564;DHT22;4820;50.870;4.702;2023-03-07T11:21:01;6.60;99.90
9564;DHT22;4820;50.870;4.702;2023-03-07T11:23:29;6.60;99.90
9564;DHT22;4820;50.870;4.702;2023-03-07T11:25:57;6.50;99.90
9564;DHT22;4820;50.870;4.702;2023-03-07T11:28:40;6.40;99.90
9564;DHT22;4820;50.870;4.702;2023-03-07T11:31:21;6.40;99.90
9564;DHT22;4820;50.870;4.702;2023-03-07T11:33:52;6.30;99.90
9564;DHT22;4820;50.870;4.702;2023-03-07T11:36:29;6.30;99.90
9564;DHT22;4820;50.870;4.702;2023-03-07T11:39:31;6.30;99.90
9564;DHT22;4820;50.870;4.702;2023-03-07T11:41:59;6.30;99.90
9564;DHT22;4820;50.870;4.702;2023-03-07T11:44:52;6.30;99.90
9564;DHT22;4820;50.870;4.702;2023-03-07T12:01:31;6.10;99.90
9564;DHT22;4820;50.870;4.702;2023-03-07T12:22:26;5.80;99.90
9564;DHT22;4820;50.870;4.702;2023-03-07T12:27:54;5.70;99.90
9564;DHT22;4820;50.870;4.702;2023-03-07T12:33:08;5.60;99.90
9564;DHT22;4820;50.870;4.702;2023-03-07T12:35:41;5.50;99.90
9564;DHT22;4820;50.870;4.702;2023-03-07T12:38:42;5.50;99.90
9564;DHT22;4820;50.870;4.702;2023-03-07T12:47:24;5.60;99.90
9564;DHT22;4820;50.870;4.702;2023-03-07T12:55:22;5.70;99.90
9564;DHT22;4820;50.870;4.702;2023-03-07T13:01:03;5.80;99.90
9564;DHT22;4820;50.870;4.702;2023-03-07T13:06:17;5.90;99.90
9564;DHT22;4820;50.870;4.702;2023-03-07T13:08:47;5.80;99.90
9564;DHT22;4820;50.870;4.702;2023-03-07T13:11:23;5.90;99.90
9564;DHT22;4820;50.870;4.702;2023-03-07T13:13:50;6.00;99.90
9564;DHT22;4820;50.870;4.702;2023-03-07T13:24:50;6.10;99.90
9564;DHT22;4820;50.870;4.702;2023-03-07T13:27:28;6.10;99.90
9564;DHT22;4820;50.870;4.702;2023-03-07T13:53:38;5.90;99.90
9564;DHT22;4820;50.870;4.702;2023-03-07T14:04:23;6.00;99.90
9564;DHT22;4820;50.870;4.702;2023-03-07T14:07:32;5.90;99.90
9564;DHT22;4820;50.870;4.702;2023-03-07T14:10:01;5.90;99.90
9564;DHT22;4820;50.870;4.702;2023-03-07T14:29:01;6.30;99.90
9564;DHT22;4820;50.870;4.702;2023-03-07T14:31:29;6.30;99.90
9564;DHT22;4820;50.870;4.702;2023-03-07T14:33:55;6.30;99.90
9564;DHT22;4820;50.870;4.702;2023-03-07T14:36:24;6.20;99.90
9564;DHT22;4820;50.870;4.702;2023-03-07T14:38:54;6.20;99.90
9564;DHT22;4820;50.870;4.702;2023-03-07T14:44:04;6.30;99.90
9564;DHT22;4820;50.870;4.702;2023-03-07T14:49:49;6.30;99.90
9564;DHT22;4820;50.870;4.702;2023-03-07T14:52:20;6.30;99.90
9564;DHT22;4820;50.870;4.702;2023-03-07T14:54:48;6.20;99.90
9564;DHT22;4820;50.870;4.702;2023-03-07T14:57:22;6.30;99.90
9564;DHT22;4820;50.870;4.702;2023-03-07T15:00:11;6.40;99.90
9564;DHT22;4820;50.870;4.702;2023-03-07T15:02:46;6.30;99.90
9564;DHT22;4820;50.870;4.702;2023-03-07T15:05:17;6.40;99.90
9564;DHT22;4820;50.870;4.702;2023-03-07T15:07:43;6.50;99.90
9564;DHT22;4820;50.870;4.702;2023-03-07T15:12:56;6.60;99.90
9564;DHT22;4820;50.870;4.702;2023-03-07T15:15:29;6.60;99.90
9564;DHT22;4820;50.870;4.702;2023-03-07T15:18:02;6.70;99.90
9564;DHT22;4820;50.870;4.702;2023-03-07T15:20:29;6.60;99.90
9564;DHT22;4820;50.870;4.702;2023-03-07T15:23:04;6.60;99.90
9564;DHT22;4820;50.870;4.702;2023-03-07T15:25:30;6.50;99.90
9564;DHT22;4820;50.870;4.702;2023-03-07T15:27:59;6.50;99.90
9564;DHT22;4820;50.870;4.702;2023-03-07T15:30:29;6.50;99.90
9564;DHT22;4820;50.870;4.702;2023-03-07T15:38:39;6.20;99.90
9564;DHT22;4820;50.870;4.702;2023-03-07T15:46:44;5.80;99.90
9564;DHT22;4820;50.870;4.702;2023-03-07T15:49:42;5.70;99.90
9564;DHT22;4820;50.870;4.702;2023-03-07T15:54:49;5.50;99.90
9564;DHT22;4820;50.870;4.702;2023-03-07T15:57:18;5.50;99.90
9564;DHT22;4820;50.870;4.702;2023-03-07T16:00:13;5.30;99.90
9564;DHT22;4820;50.870;4.702;2023-03-07T16:02:43;5.20;99.90
9564;DHT22;4820;50.870;4.702;2023-03-07T16:07:45;5.00;99.90
9564;DHT22;4820;50.870;4.702;2023-03-07T16:10:11;4.90;99.90
9564;DHT22;4820;50.870;4.702;2023-03-07T16:12:38;4.90;99.90
9564;DHT22;4820;50.870;4.702;2023-03-07T16:15:13;4.80;99.90
9564;DHT22;4820;50.870;4.702;2023-03-07T16:17:39;4.80;99.90
9564;DHT22;4820;50.870;4.702;2023-03-07T16:20:14;4.80;99.90
9564;DHT22;4820;50.870;4.702;2023-03-07T16:22:40;4.90;99.90
9564;DHT22;4820;50.870;4.702;2023-03-07T16:25:05;4.90;99.90
9564;DHT22;4820;50.870;4.702;2023-03-07T16:27:32;4.90;99.90
9564;DHT22;4820;50.870;4.702;2023-03-07T16:29:58;4.90;99.90
9564;DHT22;4820;50.870;4.702;2023-03-07T16:32:25;4.90;99.90
9564;DHT22;4820;50.870;4.702;2023-03-07T16:34:51;4.80;99.90
9564;DHT22;4820;50.870;4.702;2023-03-07T16:37:17;4.70;99.90
9564;DHT22;4820;50.870;4.702;2023-03-07T16:39:42;4.70;99.90
9564;DHT22;4820;50.870;4.702;2023-03-07T16:42:26;4.70;99.90
9564;DHT22;4820;50.870;4.702;2023-03-07T16:44:52;4.70;99.90
9564;DHT22;4820;50.870;4.702;2023-03-07T16:47:17;4.60;99.90
9564;DHT22;4820;50.870;4.702;2023-03-07T16:49:43;4.60;99.90
9564;DHT22;4820;50.870;4.702;2023-03-07T16:52:12;4.50;99.90
9564;DHT22;4820;50.870;4.702;2023-03-07T16:54:38;4.60;99.90
9564;DHT22;4820;50.870;4.702;2023-03-07T16:57:06;4.60;99.90
9564;DHT22;4820;50.870;4.702;2023-03-07T16:59:36;4.50;99.90
9564;DHT22;4820;50.870;4.702;2023-03-07T17:02:18;4.50;99.90
9564;DHT22;4820;50.870;4.702;2023-03-07T17:04:44;4.50;99.90
9564;DHT22;4820;50.870;4.702;2023-03-07T17:07:16;4.50;99.90
9564;DHT22;4820;50.870;4.702;2023-03-07T17:09:42;4.50;99.90
9564;DHT22;4820;50.870;4.702;2023-03-07T17:12:08;4.50;99.90
9564;DHT22;4820;50.870;4.702;2023-03-07T17:14:34;4.50;99.90
9564;DHT22;4820;50.870;4.702;2023-03-07T17:16:59;4.50;99.90
9564;DHT22;4820;50.870;4.702;2023-03-07T17:19:30;4.50;99.90
9564;DHT22;4820;50.870;4.702;2023-03-07T17:21:58;4.50;99.90
9564;DHT22;4820;50.870;4.702;2023-03-07T17:24:26;4.50;99.90
9564;DHT22;4820;50.870;4.702;2023-03-07T17:26:53;4.50;99.90
9564;DHT22;4820;50.870;4.702;2023-03-07T17:31:48;4.50;99.90
9564;DHT22;4820;50.870;4.702;2023-03-07T17:34:33;4.50;99.90
9564;DHT22;4820;50.870;4.702;2023-03-07T17:36:59;4.60;99.90
9564;DHT22;4820;50.870;4.702;2023-03-07T17:39:26;4.70;99.90
9564;DHT22;4820;50.870;4.702;2023-03-07T17:41:57;4.60;99.90
9564;DHT22;4820;50.870;4.702;2023-03-07T17:44:23;4.60;99.90
9564;DHT22;4820;50.870;4.702;2023-03-07T17:46:53;4.70;99.90
9564;DHT22;4820;50.870;4.702;2023-03-07T17:49:20;4.70;99.90
9564;DHT22;4820;50.870;4.702;2023-03-07T17:51:46;4.70;99.90
9564;DHT22;4820;50.870;4.702;2023-03-07T17:54:14;4.70;99.90
9564;DHT22;4820;50.870;4.702;2023-03-07T17:56:40;4.70;99.90
9564;DHT22;4820;50.870;4.702;2023-03-07T17:59:06;4.70;99.90
9564;DHT22;4820;50.870;4.702;2023-03-07T18:01:33;4.70;99.90
9564;DHT22;4820;50.870;4.702;2023-03-07T18:03:59;4.70;99.90
9564;DHT22;4820;50.870;4.702;2023-03-07T18:06:26;4.70;99.90
9564;DHT22;4820;50.870;4.702;2023-03-07T18:08:53;4.70;99.90
9564;DHT22;4820;50.870;4.702;2023-03-07T18:11:19;4.70;99.90
9564;DHT22;4820;50.870;4.702;2023-03-07T18:13:45;4.70;99.90
9564;DHT22;4820;50.870;4.702;2023-03-07T18:16:11;4.70;99.90
9564;DHT22;4820;50.870;4.702;2023-03-07T18:18:38;4.70;99.90
9564;DHT22;4820;50.870;4.702;2023-03-07T18:21:07;4.70;99.90
9564;DHT22;4820;50.870;4.702;2023-03-07T18:23:33;4.60;99.90
9564;DHT22;4820;50.870;4.702;2023-03-07T18:26:03;4.60;99.90
9564;DHT22;4820;50.870;4.702;2023-03-07T18:28:29;4.60;99.90
9564;DHT22;4820;50.870;4.702;2023-03-07T18:31:00;4.50;99.90
9564;DHT22;4820;50.870;4.702;2023-03-07T18:33:26;4.50;99.90
9564;DHT22;4820;50.870;4.702;2023-03-07T18:35:56;4.50;99.90
9564;DHT22;4820;50.870;4.702;2023-03-07T18:38:22;4.50;99.90
9564;DHT22;4820;50.870;4.702;2023-03-07T18:40:48;4.50;99.90
9564;DHT22;4820;50.870;4.702;2023-03-07T18:43:14;4.50;99.90
9564;DHT22;4820;50.870;4.702;2023-03-07T18:45:41;4.60;99.90
9564;DHT22;4820;50.870;4.702;2023-03-07T18:48:08;4.60;99.90
9564;DHT22;4820;50.870;4.702;2023-03-07T18:50:34;4.60;99.90
9564;DHT22;4820;50.870;4.702;2023-03-07T18:52:59;4.60;99.90
9564;DHT22;4820;50.870;4.702;2023-03-07T18:55:25;4.60;99.90
9564;DHT22;4820;50.870;4.702;2023-03-07T18:57:51;4.60;99.90
9564;DHT22;4820;50.870;4.702;2023-03-07T19:00:17;4.60;99.90
9564;DHT22;4820;50.870;4.702;2023-03-07T19:02:44;4.50;99.90
9564;DHT22;4820;50.870;4.702;2023-03-07T19:05:09;4.40;99.90
9564;DHT22;4820;50.870;4.702;2023-03-07T19:07:36;4.40;99.90
9564;DHT22;4820;50.870;4.702;2023-03-07T19:10:03;4.30;99.90
9564;DHT22;4820;50.870;4.702;2023-03-07T19:12:29;4.10;99.90